createdAt,value
2022-11-29T00:14:14.006Z,5.2
2022-11-29T00:29:14.022Z,5.3
2022-11-29T00:44:19.660Z,5.3
2022-11-29T00:59:13.990Z,5.3
2022-11-29T01:14:13.952Z,5.2
2022-11-29T01:29:13.973Z,5
2022-11-29T01:44:13.916Z,4.9
2022-11-29T01:59:13.946Z,4.9
2022-11-29T02:14:13.970Z,4.9
2022-11-29T02:29:13.930Z,4.8
2022-11-29T02:44:13.890Z,5.1
2022-11-29T02:59:13.918Z,5.3
2022-11-29T03:14:13.895Z,5.4
2022-11-29T03:29:13.874Z,5.4
2022-11-29T03:44:13.846Z,5.4
2022-11-29T03:59:13.861Z,5.4
2022-11-29T04:14:13.821Z,5.4
2022-11-29T04:29:13.827Z,5.3
2022-11-29T04:59:13.791Z,5.3
2022-11-29T05:14:13.760Z,5.3
2022-11-29T05:29:13.796Z,5.2
2022-11-29T05:44:13.741Z,5.1
2022-11-29T05:59:13.756Z,5.1
2022-11-29T06:14:13.748Z,4.9
2022-11-29T06:29:13.717Z,4.9
2022-11-29T06:44:13.702Z,4.9
2022-11-29T07:14:13.672Z,4.9
2022-11-29T07:29:13.657Z,5
2022-11-29T07:44:13.661Z,5.1
2022-11-29T07:59:13.657Z,5
2022-11-29T08:14:13.651Z,4.9
2022-11-29T08:29:13.650Z,5
2022-11-29T08:44:13.608Z,5.2
2022-11-29T08:59:13.626Z,5.4
2022-11-29T09:14:13.608Z,5.5
2022-11-29T09:29:13.613Z,5.4
2022-11-29T09:44:13.597Z,5.3
2022-11-29T09:59:13.582Z,5.4
2022-11-29T10:14:13.542Z,5.3
2022-11-29T10:29:13.551Z,5.7
2022-11-29T10:44:13.553Z,5.9
2022-11-29T10:59:13.574Z,5.8
2022-11-29T11:14:13.500Z,6
2022-11-29T11:29:13.545Z,6
2022-11-29T11:44:15.290Z,6.1
2022-11-29T11:59:13.480Z,6.1
2022-11-29T12:14:13.437Z,6.1
2022-11-29T12:29:13.476Z,6.2
2022-11-29T12:44:13.421Z,6.3
2022-11-29T12:59:13.436Z,6.5
2022-11-29T13:14:41.696Z,6.8
2022-11-29T13:29:13.432Z,6.9
2022-11-29T13:44:13.381Z,6.8
2022-11-29T13:59:13.335Z,6.9
2022-11-29T14:14:13.345Z,7
2022-11-29T14:29:13.343Z,6.9
2022-11-29T14:44:13.324Z,6.8
2022-11-29T14:59:13.290Z,6.8
2022-11-29T15:14:13.285Z,6.7
2022-11-29T15:29:13.269Z,6.7
2022-11-29T15:44:13.248Z,6.6
2022-11-29T15:59:13.300Z,6.5
2022-11-29T16:14:13.233Z,6.5
2022-11-29T16:29:13.256Z,6.4
2022-11-29T16:44:13.220Z,6.3
2022-11-29T16:59:20.560Z,6.3
2022-11-29T17:14:13.169Z,6.3
2022-11-29T17:29:13.205Z,6.3
2022-11-29T17:44:13.148Z,6.4
2022-11-29T17:59:13.198Z,6.3
2022-11-29T18:29:13.156Z,6.3
2022-11-29T18:44:13.102Z,6.3
2022-11-29T18:59:13.123Z,6.3
2022-11-29T19:14:13.294Z,6.3
2022-11-29T19:29:13.085Z,6.3
2022-11-29T19:44:13.053Z,6.3
2022-11-29T19:59:13.074Z,6.3
2022-11-29T20:14:13.044Z,6.3
2022-11-29T20:44:13.021Z,6.2
2022-11-29T20:59:13.042Z,6.1
2022-11-29T21:14:12.996Z,6.2
2022-11-29T21:29:13.005Z,6.2
2022-11-29T21:44:12.963Z,6.1
2022-11-29T21:59:12.991Z,5.9
2022-11-29T22:14:12.934Z,5.9
2022-11-29T22:29:12.957Z,5.7
2022-11-29T22:44:12.932Z,5.8
2022-11-29T22:59:12.929Z,5.7
2022-11-29T23:14:12.934Z,5.7
2022-11-29T23:29:12.928Z,5.6
2022-11-29T23:44:12.898Z,5.6
2022-11-29T23:59:12.881Z,5.6
